Time;durP1;ratioP1;P1;durP2;ratioP2;P2;SDS_P1;SDS_P2;PMS_P1;PMS_P2;Temp;Humidity;BMP_temperature;BMP_pressure;BME280_temperature;BME280_humidity;BME280_pressure;Samples;Min_cycle;Max_cycle;Signal;HPM_P1;HPM_P2
2020/12/26 00:01:08;;;;;;;7.20;3.80;;;-3276.20;92.60;;;;;;4857843;29;20061;-83
2020/12/26 00:03:37;;;;;;;8.00;3.50;;;-3276.30;92.60;;;;;;4855928;29;20057;-81
2020/12/26 00:06:04;;;;;;;10.38;3.20;;;-3276.20;92.30;;;;;;4876387;29;20424;-82
2020/12/26 00:08:32;;;;;;;7.55;3.42;;;-3276.20;92.30;;;;;;4855083;29;20057;-79
2020/12/26 00:10:59;;;;;;;7.00;2.72;;;-3276.10;92.00;;;;;;4857288;29;20128;-80
2020/12/26 00:13:27;;;;;;;11.75;3.55;;;-3276.10;92.20;;;;;;4839750;29;20061;-82
2020/12/26 00:15:55;;;;;;;12.05;2.97;;;-3276.10;92.30;;;;;;4873718;29;20140;-82
2020/12/26 00:18:22;;;;;;;8.63;3.33;;;-3276.10;92.30;;;;;;4856371;29;20053;-80
2020/12/26 00:20:50;;;;;;;16.52;3.88;;;-3276.10;92.40;;;;;;4878900;29;20064;-81
2020/12/26 00:23:18;;;;;;;7.82;3.65;;;-3276.10;92.60;;;;;;4843669;29;20120;-83
2020/12/26 00:25:46;;;;;;;10.70;3.92;;;-3276.00;92.50;;;;;;4883545;29;20061;-80
2020/12/26 00:28:12;;;;;;;9.43;3.25;;;-3276.00;92.40;;;;;;4863620;29;20049;-84
2020/12/26 00:30:40;;;;;;;13.55;4.82;;;-3276.10;92.60;;;;;;4849042;29;20076;-82
2020/12/26 00:33:07;;;;;;;13.35;4.00;;;-3276.30;92.20;;;;;;4873058;29;20420;-80
2020/12/26 00:35:34;;;;;;;10.40;3.95;;;-3276.40;91.50;;;;;;4841712;29;20060;-80
2020/12/26 00:38:02;;;;;;;8.07;3.50;;;-3276.20;90.90;;;;;;4856017;29;20060;-81
2020/12/26 00:40:29;;;;;;;8.75;3.13;;;-3276.20;90.90;;;;;;4850405;29;20120;-80
2020/12/26 00:42:55;;;;;;;5.60;2.30;;;-3276.20;90.70;;;;;;4878955;29;20124;-81
2020/12/26 00:45:22;;;;;;;7.75;3.40;;;-3276.10;91.00;;;;;;4861889;29;20065;-80
2020/12/26 00:47:49;;;;;;;7.25;2.83;;;-3276.10;91.10;;;;;;4860003;29;20249;-81
2020/12/26 00:50:16;;;;;;;6.05;3.72;;;-3276.10;91.10;;;;;;4850887;29;20069;-82
2020/12/26 00:52:43;;;;;;;10.50;3.58;;;-3276.10;91.30;;;;;;4841469;29;20124;-80
2020/12/26 00:55:11;;;;;;;8.20;3.22;;;-3276.10;91.40;;;;;;4857238;29;20049;-81
2020/12/26 00:57:42;;;;;;;9.27;4.20;;;-3276.10;91.50;;;;;;4855562;29;20241;-82
2020/12/26 01:00:12;;;;;;;10.02;3.75;;;-3276.00;91.50;;;;;;4845111;29;20072;-81
2020/12/26 01:02:50;;;;;;;11.93;3.88;;;-3276.00;91.70;;;;;;4837414;29;20061;-81
2020/12/26 01:05:20;;;;;;;8.32;4.22;;;-3276.10;91.80;;;;;;4853064;29;20137;-81
2020/12/26 01:07:48;;;;;;;8.10;3.20;;;-3276.20;91.60;;;;;;4870167;29;20363;-81
2020/12/26 01:10:15;;;;;;;7.78;4.13;;;-3276.30;90.70;;;;;;4862470;29;20281;-79
2020/12/26 01:12:42;;;;;;;6.90;2.85;;;-3276.20;90.90;;;;;;4842829;29;20061;-81
2020/12/26 01:15:10;;;;;;;7.30;3.58;;;-3276.40;90.80;;;;;;4877042;29;20053;-83
2020/12/26 01:17:36;;;;;;;9.10;4.07;;;-3276.50;90.30;;;;;;4855460;29;20065;-84
2020/12/26 01:20:04;;;;;;;7.07;3.00;;;-3276.50;90.20;;;;;;4880445;29;20063;-81
2020/12/26 01:22:31;;;;;;;10.70;3.40;;;-3276.40;90.00;;;;;;4869212;29;20375;-80
2020/12/26 01:25:02;;;;;;;6.68;2.95;;;-3276.40;90.70;;;;;;4884315;29;20068;-81
2020/12/26 01:27:30;;;;;;;8.75;3.45;;;-3276.50;90.30;;;;;;4868711;29;20055;-82
2020/12/26 01:29:56;;;;;;;6.55;3.35;;;-3276.50;90.20;;;;;;4858930;29;20061;-81
2020/12/26 01:32:27;;;;;;;7.30;3.47;;;-3276.40;90.10;;;;;;4878886;29;20253;-83
2020/12/26 01:34:54;;;;;;;5.90;2.95;;;-3276.30;90.50;;;;;;4854998;29;20380;-82
2020/12/26 01:37:22;;;;;;;5.75;2.70;;;-3276.20;90.40;;;;;;4871905;29;20073;-81
2020/12/26 01:39:49;;;;;;;6.78;3.85;;;-3276.10;90.50;;;;;;4862995;29;20049;-83
2020/12/26 01:42:15;;;;;;;7.63;3.20;;;-3276.10;91.10;;;;;;4884829;29;20061;-80
2020/12/26 01:44:43;;;;;;;8.43;3.40;;;-3276.10;90.90;;;;;;4882013;29;20061;-80
2020/12/26 01:47:10;;;;;;;6.45;3.20;;;-3276.10;91.10;;;;;;4850294;29;20094;-81
2020/12/26 01:49:38;;;;;;;10.90;3.22;;;-3276.20;90.70;;;;;;4877946;29;20061;-81
2020/12/26 01:52:08;;;;;;;9.18;3.25;;;-3276.30;90.70;;;;;;4867213;29;20113;-81
2020/12/26 01:54:34;;;;;;;5.63;3.05;;;-3276.20;90.70;;;;;;4842750;29;20053;-81
2020/12/26 01:57:04;;;;;;;7.07;2.50;;;-3276.10;91.20;;;;;;4872612;29;20065;-81
2020/12/26 01:59:31;;;;;;;9.55;3.08;;;-3276.10;91.10;;;;;;4839746;29;20126;-82
2020/12/26 02:02:00;;;;;;;5.65;2.67;;;-3276.10;90.90;;;;;;4866781;29;20042;-83
2020/12/26 02:04:29;;;;;;;8.30;3.60;;;-3276.10;90.90;;;;;;4870426;29;20057;-82
2020/12/26 02:07:01;;;;;;;8.07;2.97;;;-3276.10;91.10;;;;;;4857352;29;20071;-80
2020/12/26 02:09:29;;;;;;;5.25;2.60;;;-3276.10;91.00;;;;;;4846679;29;20050;-79
2020/12/26 02:11:56;;;;;;;8.52;2.97;;;-3276.10;91.30;;;;;;4839840;29;20045;-79
2020/12/26 02:14:24;;;;;;;9.90;4.95;;;-3276.10;91.30;;;;;;4842570;29;20074;-78
2020/12/26 02:16:52;;;;;;;5.93;3.33;;;-3276.10;91.40;;;;;;4869362;29;20056;-80
2020/12/26 02:19:21;;;;;;;7.68;3.30;;;-3276.10;91.80;;;;;;4845084;29;20061;-80
2020/12/26 02:21:49;;;;;;;7.50;3.08;;;-3276.10;91.30;;;;;;4843741;29;20079;-79
2020/12/26 02:24:17;;;;;;;7.35;2.50;;;-3276.30;91.10;;;;;;4834018;29;20050;-81
2020/12/26 02:26:44;;;;;;;7.35;3.42;;;-3276.30;90.70;;;;;;4839983;29;20066;-81
2020/12/26 02:29:13;;;;;;;6.70;2.95;;;-3276.40;90.60;;;;;;4840439;29;20050;-81
2020/12/26 02:31:40;;;;;;;4.82;2.70;;;-3276.40;90.40;;;;;;4842856;29;20079;-82
2020/12/26 02:34:07;;;;;;;8.23;3.55;;;-3276.10;90.50;;;;;;4866916;29;20087;-82
2020/12/26 02:36:40;;;;;;;8.13;3.88;;;-3276.10;91.60;;;;;;4864454;29;20058;-82
2020/12/26 02:39:08;;;;;;;4.97;2.78;;;-3276.20;91.20;;;;;;4847089;29;20070;-81
2020/12/26 02:41:35;;;;;;;7.68;3.25;;;-3276.20;91.10;;;;;;4841740;29;20053;-82
2020/12/26 02:44:03;;;;;;;7.45;3.03;;;-3276.20;91.10;;;;;;4843948;29;20066;-82
2020/12/26 02:46:30;;;;;;;4.45;2.63;;;-3276.40;91.50;;;;;;4854380;29;20061;-81
2020/12/26 02:48:57;;;;;;;6.97;3.45;;;-3276.40;90.90;;;;;;4851055;29;20060;-81
2020/12/26 02:51:24;;;;;;;8.77;3.55;;;-3276.40;90.80;;;;;;4843650;29;20050;-82
2020/12/26 02:53:51;;;;;;;8.75;4.03;;;-3276.40;90.80;;;;;;4838472;29;20064;-81
2020/12/26 02:56:18;;;;;;;6.45;2.15;;;-3276.40;90.60;;;;;;4861080;29;20060;-79
2020/12/26 02:58:46;;;;;;;5.72;2.92;;;-3276.50;90.70;;;;;;4863380;29;20061;-79
2020/12/26 03:01:13;;;;;;;9.57;4.18;;;-3276.50;90.70;;;;;;4843952;29;20046;-83
2020/12/26 03:03:41;;;;;;;6.10;2.83;;;0.00;90.00;;;;;;4832100;29;20091;-82
2020/12/26 03:06:09;;;;;;;8.00;3.25;;;0.00;89.50;;;;;;4848927;29;20050;-81
2020/12/26 03:08:36;;;;;;;9.10;3.08;;;-3276.70;89.40;;;;;;4835710;29;20054;-79
2020/12/26 03:11:05;;;;;;;7.38;3.05;;;-3276.60;89.50;;;;;;4856479;29;20069;-81
2020/12/26 03:13:36;;;;;;;8.60;2.85;;;-3276.60;90.20;;;;;;4862691;29;20133;-81
2020/12/26 03:16:05;;;;;;;7.32;3.25;;;-3276.60;89.80;;;;;;4861562;29;20049;-83
2020/12/26 03:18:32;;;;;;;9.35;3.40;;;-3276.70;89.20;;;;;;4868761;29;20374;-80
2020/12/26 03:20:58;;;;;;;7.43;3.00;;;-3276.70;89.50;;;;;;4858564;29;20067;-81
2020/12/26 03:23:25;;;;;;;6.18;2.90;;;-3276.60;89.80;;;;;;4844780;29;20065;-83
2020/12/26 03:25:52;;;;;;;6.78;3.00;;;0.00;89.60;;;;;;4854015;29;20383;-83
2020/12/26 03:28:19;;;;;;;8.85;3.72;;;0.00;89.20;;;;;;4855866;29;20058;-82
2020/12/26 03:30:46;;;;;;;8.30;2.97;;;0.00;89.00;;;;;;4843475;29;20058;-82
2020/12/26 03:33:16;;;;;;;9.23;3.75;;;0.00;89.20;;;;;;4843727;29;20151;-82
2020/12/26 03:35:43;;;;;;;;;;;0.00;89.40;;;;;;4861417;29;20046;-83
2020/12/26 03:38:13;;;;;;;4.90;3.05;;;0.00;89.20;;;;;;4877865;29;19965;-82
2020/12/26 03:40:40;;;;;;;5.70;3.13;;;0.00;89.30;;;;;;4843216;29;20222;-81
2020/12/26 03:43:07;;;;;;;9.52;3.40;;;-3276.60;89.50;;;;;;4865735;29;20434;-80
2020/12/26 03:45:34;;;;;;;7.22;2.83;;;0.00;89.50;;;;;;4849247;29;20062;-82
2020/12/26 03:48:01;;;;;;;11.80;4.00;;;-3276.70;89.10;;;;;;4851028;29;20045;-79
2020/12/26 03:50:28;;;;;;;7.45;2.80;;;-3276.70;89.70;;;;;;4878939;29;20061;-80
2020/12/26 03:52:55;;;;;;;5.47;3.22;;;-3276.60;89.50;;;;;;4876075;29;20053;-80
2020/12/26 03:55:22;;;;;;;7.20;2.80;;;-3276.60;89.60;;;;;;4861394;29;20065;-81
2020/12/26 03:57:49;;;;;;;6.97;2.60;;;-3276.50;89.70;;;;;;4878682;29;20053;-82
2020/12/26 04:00:15;;;;;;;11.25;3.50;;;-3276.50;90.00;;;;;;4859831;29;20167;-81
2020/12/26 04:02:43;;;;;;;7.28;3.28;;;-3276.50;89.60;;;;;;4871486;29;20080;-80
2020/12/26 04:05:13;;;;;;;4.43;2.35;;;-3276.50;90.00;;;;;;4842152;29;20057;-79
2020/12/26 04:07:41;;;;;;;9.27;2.22;;;-3276.60;90.00;;;;;;4874408;29;20041;-82
2020/12/26 04:10:09;;;;;;;8.30;3.50;;;-3276.70;89.80;;;;;;4873507;29;20045;-83
2020/12/26 04:12:36;;;;;;;6.70;2.95;;;-3276.70;89.50;;;;;;4883849;29;20300;-82
2020/12/26 04:15:05;;;;;;;5.22;2.47;;;-3276.70;89.30;;;;;;4891941;29;20057;-80
2020/12/26 04:17:33;;;;;;;6.18;2.88;;;-3276.70;89.40;;;;;;4869862;29;20340;-81
2020/12/26 04:20:07;;;;;;;5.80;3.45;;;-3276.60;89.50;;;;;;4848097;29;20077;-79
2020/12/26 04:22:34;;;;;;;8.85;3.28;;;-3276.70;89.80;;;;;;4863051;29;20054;-82
2020/12/26 04:25:02;;;;;;;6.07;2.80;;;-3276.70;89.60;;;;;;4862637;29;20053;-82
2020/12/26 04:27:31;;;;;;;6.35;2.97;;;-3276.60;89.70;;;;;;4866700;29;20081;-81
2020/12/26 04:30:07;;;;;;;6.32;3.28;;;-3276.60;89.80;;;;;;4878424;29;20057;-80
2020/12/26 04:32:34;;;;;;;7.93;2.92;;;-3276.70;89.90;;;;;;4846981;29;20042;-81
2020/12/26 04:35:02;;;;;;;6.32;2.67;;;-3276.60;90.10;;;;;;4860919;29;20053;-83
2020/12/26 04:37:29;;;;;;;7.60;3.13;;;0.00;89.90;;;;;;4877234;29;20258;-82
2020/12/26 04:39:59;;;;;;;4.97;1.95;;;-3276.70;90.00;;;;;;4851122;29;20057;-82
2020/12/26 04:42:30;;;;;;;8.30;2.42;;;0.00;90.10;;;;;;4865168;29;20049;-81
2020/12/26 04:44:58;;;;;;;6.28;2.60;;;0.00;89.50;;;;;;4859032;29;20068;-80
2020/12/26 04:47:31;;;;;;;6.50;2.72;;;0.00;90.10;;;;;;4847284;29;20045;-82
2020/12/26 04:49:59;;;;;;;6.28;3.05;;;0.00;90.20;;;;;;4863326;29;20374;-81
2020/12/26 04:52:30;;;;;;;5.00;2.38;;;0.00;90.00;;;;;;4874664;29;20124;-82
2020/12/26 04:55:03;;;;;;;6.25;3.42;;;0.00;90.00;;;;;;4853958;29;20416;-81
2020/12/26 04:57:34;;;;;;;7.43;3.95;;;0.00;89.80;;;;;;4877348;29;20053;-82
2020/12/26 05:00:01;;;;;;;8.50;3.83;;;0.00;90.00;;;;;;4881495;29;20077;-83
2020/12/26 05:02:36;;;;;;;5.07;2.80;;;0.00;90.30;;;;;;4892574;29;20057;-81
2020/12/26 05:05:04;;;;;;;5.97;2.95;;;0.20;90.10;;;;;;4838809;29;20418;-80
2020/12/26 05:07:32;;;;;;;10.05;3.42;;;0.30;89.80;;;;;;4840764;29;20049;-81
2020/12/26 05:10:00;;;;;;;8.05;3.80;;;0.40;89.50;;;;;;4860874;29;20112;-81
2020/12/26 05:12:28;;;;;;;8.82;2.85;;;0.40;89.20;;;;;;4846845;29;20045;-82
2020/12/26 05:14:56;;;;;;;7.93;2.85;;;0.40;89.10;;;;;;4858977;29;20065;-81
2020/12/26 05:17:24;;;;;;;6.35;3.25;;;0.20;88.60;;;;;;4871760;29;20141;-81
2020/12/26 05:19:52;;;;;;;5.13;2.67;;;0.00;88.90;;;;;;4844054;29;20059;-80
2020/12/26 05:22:21;;;;;;;8.63;3.10;;;0.00;89.70;;;;;;4855982;29;20128;-82
2020/12/26 05:24:52;;;;;;;8.57;3.88;;;0.10;89.20;;;;;;4850179;29;20053;-80
2020/12/26 05:27:25;;;;;;;6.22;3.33;;;0.00;89.50;;;;;;4877628;29;20064;-80
2020/12/26 05:29:53;;;;;;;5.18;2.80;;;0.00;90.00;;;;;;4857538;29;20054;-80
2020/12/26 05:32:24;;;;;;;8.27;2.85;;;0.00;90.20;;;;;;4885239;29;20057;-82
2020/12/26 05:34:51;;;;;;;5.57;2.58;;;0.00;89.90;;;;;;4859761;29;20085;-80
2020/12/26 05:37:20;;;;;;;6.43;3.50;;;0.20;90.40;;;;;;4862568;29;20057;-80
2020/12/26 05:39:48;;;;;;;7.68;3.45;;;0.30;89.80;;;;;;4864392;29;20053;-83
2020/12/26 05:42:20;;;;;;;7.13;2.67;;;0.40;89.20;;;;;;4877140;29;20069;-81
2020/12/26 05:44:50;;;;;;;8.50;3.13;;;0.40;88.90;;;;;;4867663;29;20093;-79
2020/12/26 05:47:17;;;;;;;13.85;3.13;;;0.20;89.40;;;;;;4850535;29;20092;-80
2020/12/26 05:49:46;;;;;;;7.20;2.83;;;0.00;90.00;;;;;;4862213;29;20057;-82
2020/12/26 05:52:20;;;;;;;6.25;3.80;;;0.10;90.20;;;;;;4878167;29;20391;-81
2020/12/26 05:54:50;;;;;;;9.13;4.47;;;0.10;90.10;;;;;;4846503;29;20064;-82
2020/12/26 05:57:19;;;;;;;7.38;3.38;;;0.10;90.70;;;;;;4865625;29;20049;-81
2020/12/26 05:59:48;;;;;;;6.63;2.65;;;0.00;90.60;;;;;;4880772;29;20053;-81
2020/12/26 06:02:33;;;;;;;7.88;2.95;;;0.10;90.40;;;;;;4861901;29;20076;-80
2020/12/26 06:05:02;;;;;;;7.03;2.85;;;0.10;90.70;;;;;;4869182;29;20045;-79
2020/12/26 06:07:32;;;;;;;5.80;2.38;;;0.10;90.40;;;;;;4837741;29;20078;-81
2020/12/26 06:10:02;;;;;;;6.88;3.08;;;0.10;90.60;;;;;;4878013;29;20130;-82
2020/12/26 06:12:30;;;;;;;3.88;2.58;;;0.10;90.70;;;;;;4860784;29;20057;-80
2020/12/26 06:14:58;;;;;;;5.45;2.72;;;0.10;90.80;;;;;;4861266;29;20050;-79
2020/12/26 06:17:28;;;;;;;11.15;3.25;;;0.10;90.80;;;;;;4876226;29;20068;-80
2020/12/26 06:20:06;;;;;;;5.22;1.90;;;0.10;90.90;;;;;;1515102;29;10022794;-80
2020/12/26 06:22:47;;;;;;;5.45;2.95;;;0.10;90.90;;;;;;3879629;29;10001073;-79
2020/12/26 06:25:16;;;;;;;7.28;2.95;;;0.10;91.20;;;;;;4880025;29;20287;-78
2020/12/26 06:27:57;;;;;;;9.00;3.03;;;0.10;91.30;;;;;;4898116;29;20101;-79
2020/12/26 06:30:24;;;;;;;7.13;3.15;;;0.10;91.40;;;;;;4871401;29;20049;-79
2020/12/26 06:32:52;;;;;;;7.68;3.25;;;0.10;91.30;;;;;;4892071;29;20053;-79
2020/12/26 06:35:22;;;;;;;5.30;2.63;;;0.10;91.40;;;;;;4883222;29;20061;-79
2020/12/26 06:38:10;;;;;;;6.32;2.80;;;0.10;91.60;;;;;;4881299;29;20077;-81
2020/12/26 06:40:39;;;;;;;9.02;3.38;;;0.20;91.40;;;;;;4897170;29;20061;-80
2020/12/26 06:43:08;;;;;;;8.70;3.38;;;0.10;91.40;;;;;;4888305;29;20059;-79
2020/12/26 06:45:36;;;;;;;5.90;3.15;;;0.10;91.50;;;;;;4887834;29;20057;-80
2020/12/26 06:48:03;;;;;;;5.32;3.13;;;0.10;91.50;;;;;;4887186;29;20053;-79
2020/12/26 06:50:33;;;;;;;6.32;2.20;;;0.20;91.60;;;;;;4888600;29;20057;-79
2020/12/26 06:53:01;;;;;;;7.43;2.78;;;0.20;91.70;;;;;;4888639;29;20053;-81
2020/12/26 06:55:40;;;;;;;9.25;3.35;;;0.30;91.10;;;;;;4901936;29;20049;-81
2020/12/26 06:58:52;;;;;;;7.95;3.67;;;0.30;91.00;;;;;;4878004;29;20049;-79
2020/12/26 07:01:24;;;;;;;7.57;3.33;;;0.30;91.40;;;;;;4887193;29;20069;-81
2020/12/26 07:04:15;;;;;;;9.60;2.95;;;0.30;91.60;;;;;;4886770;29;20063;-82
2020/12/26 07:06:45;;;;;;;8.82;2.55;;;0.30;91.80;;;;;;4880198;29;20062;-80
2020/12/26 07:09:14;;;;;;;7.25;3.50;;;0.40;91.90;;;;;;4896001;29;20041;-81
2020/12/26 07:11:45;;;;;;;5.38;2.55;;;0.40;91.80;;;;;;4897760;29;20076;-82
2020/12/26 07:14:36;;;;;;;4.90;2.40;;;0.40;91.90;;;;;;4876961;29;20064;-83
2020/12/26 07:17:03;;;;;;;6.97;3.13;;;0.40;91.80;;;;;;4871193;29;20387;-79
2020/12/26 07:19:43;;;;;;;5.25;2.97;;;0.50;92.20;;;;;;4898891;29;20060;-81
2020/12/26 07:22:16;;;;;;;8.38;3.47;;;0.50;91.90;;;;;;4898243;29;20060;-82
2020/12/26 07:24:44;;;;;;;6.97;2.92;;;0.60;91.90;;;;;;4898932;29;20052;-79
2020/12/26 07:27:20;;;;;;;7.35;2.85;;;0.70;91.10;;;;;;4892580;29;20072;-80
2020/12/26 07:29:55;;;;;;;6.47;3.22;;;0.80;90.50;;;;;;4880617;29;20056;-80
2020/12/26 07:32:55;;;;;;;8.50;4.03;;;0.90;90.10;;;;;;4870586;29;20044;-81
2020/12/26 07:35:34;;;;;;;4.60;3.20;;;0.70;90.10;;;;;;4881143;29;20282;-80
2020/12/26 07:38:07;;;;;;;7.28;3.22;;;0.70;90.90;;;;;;4895327;29;20060;-79
2020/12/26 07:40:35;;;;;;;10.05;3.47;;;0.70;91.20;;;;;;4873568;29;20064;-79
2020/12/26 07:43:09;;;;;;;12.10;4.13;;;0.70;91.20;;;;;;4871947;29;20045;-80
2020/12/26 07:45:40;;;;;;;8.68;3.75;;;0.70;91.30;;;;;;4881996;29;20056;-79
2020/12/26 07:48:10;;;;;;;5.85;2.83;;;0.70;91.50;;;;;;4866088;29;20045;-81
2020/12/26 07:50:39;;;;;;;;;;;0.80;91.30;;;;;;4899752;29;20056;-80
2020/12/26 07:53:08;;;;;;;6.63;2.75;;;0.80;91.40;;;;;;4880173;29;19995;-82
2020/12/26 07:55:35;;;;;;;7.07;3.38;;;0.90;91.30;;;;;;4876944;29;20085;-82
2020/12/26 07:58:09;;;;;;;14.38;3.90;;;0.90;91.10;;;;;;4880737;29;20049;-81
2020/12/26 08:00:46;;;;;;;6.43;2.58;;;0.90;91.10;;;;;;4868662;29;20310;-80
2020/12/26 08:03:14;;;;;;;9.70;3.78;;;0.90;91.30;;;;;;4901713;29;20121;-84
2020/12/26 08:05:46;;;;;;;7.22;3.13;;;1.00;91.20;;;;;;4900158;29;20132;-81
2020/12/26 08:08:15;;;;;;;8.05;3.53;;;1.10;91.00;;;;;;4898075;29;20064;-81
2020/12/26 08:10:43;;;;;;;8.82;3.85;;;1.00;90.70;;;;;;4864477;29;20057;-80
2020/12/26 08:13:14;;;;;;;10.00;4.70;;;1.10;91.00;;;;;;4893930;29;20060;-81
2020/12/26 08:15:44;;;;;;;8.65;4.68;;;1.10;90.80;;;;;;4878433;29;20081;-80
2020/12/26 08:18:12;;;;;;;8.15;4.47;;;1.20;90.90;;;;;;4876950;29;20076;-79
2020/12/26 08:20:39;;;;;;;16.05;5.88;;;1.20;90.80;;;;;;4890706;29;20049;-79
2020/12/26 08:23:12;;;;;;;19.15;8.15;;;1.20;90.60;;;;;;4892705;29;20061;-80
2020/12/26 08:25:39;;;;;;;14.20;7.43;;;1.20;90.40;;;;;;4878818;29;20343;-83
2020/12/26 08:28:09;;;;;;;14.60;7.13;;;1.20;90.50;;;;;;4892694;29;20064;-80
2020/12/26 08:30:38;;;;;;;12.73;6.05;;;1.20;90.50;;;;;;4872422;29;20061;-80
2020/12/26 08:33:25;;;;;;;14.52;4.82;;;1.30;90.30;;;;;;4893198;29;20066;-80
2020/12/26 08:36:01;;;;;;;10.05;5.15;;;1.30;90.40;;;;;;4875652;29;20049;-79
2020/12/26 08:38:38;;;;;;;10.25;4.40;;;1.30;90.30;;;;;;4886483;29;20040;-80
2020/12/26 08:41:07;;;;;;;10.73;5.15;;;1.40;89.90;;;;;;4861955;29;20232;-82
2020/12/26 08:43:37;;;;;;;10.55;5.53;;;1.50;89.90;;;;;;4878018;29;20056;-82
2020/12/26 08:46:12;;;;;;;11.43;4.38;;;1.50;89.90;;;;;;4876893;29;20060;-80
2020/12/26 08:48:42;;;;;;;13.90;5.00;;;1.70;89.70;;;;;;4893346;29;20085;-81
2020/12/26 08:51:18;;;;;;;9.80;4.63;;;1.60;89.60;;;;;;4876731;29;20053;-82
2020/12/26 08:53:45;;;;;;;9.52;4.97;;;1.50;89.60;;;;;;4891203;29;20525;-79
2020/12/26 08:56:12;;;;;;;9.35;4.32;;;1.60;89.90;;;;;;4878618;29;20240;-80
2020/12/26 08:58:47;;;;;;;12.23;6.25;;;1.60;89.90;;;;;;4895747;29;20121;-80
2020/12/26 09:01:14;;;;;;;10.43;3.72;;;1.50;90.20;;;;;;4879199;29;20048;-81
2020/12/26 09:03:49;;;;;;;10.88;5.38;;;1.60;90.20;;;;;;4877322;29;20065;-83
2020/12/26 09:06:29;;;;;;;12.95;5.15;;;1.70;90.00;;;;;;4878291;29;20064;-80
2020/12/26 09:08:56;;;;;;;10.63;5.90;;;1.70;89.90;;;;;;4872518;29;20045;-81
2020/12/26 09:11:36;;;;;;;13.60;5.20;;;1.80;89.50;;;;;;4877328;29;20121;-81
2020/12/26 09:14:15;;;;;;;12.82;4.97;;;1.80;88.70;;;;;;4865247;29;20072;-79
2020/12/26 09:16:43;;;;;;;8.50;3.92;;;1.90;88.70;;;;;;4881779;29;20056;-81
2020/12/26 09:19:16;;;;;;;13.00;3.90;;;2.00;88.30;;;;;;4879973;29;20049;-82
2020/12/26 09:21:45;;;;;;;8.80;4.65;;;2.00;88.30;;;;;;4900936;29;20205;-80
2020/12/26 09:24:24;;;;;;;7.28;3.63;;;2.20;88.10;;;;;;4870427;29;20049;-81
2020/12/26 09:26:53;;;;;;;9.85;3.45;;;2.30;87.80;;;;;;4890212;29;20051;-82
2020/12/26 09:29:25;;;;;;;10.40;3.88;;;2.30;87.20;;;;;;4888273;29;20052;-80
2020/12/26 09:31:53;;;;;;;9.43;3.78;;;2.20;87.00;;;;;;4885138;29;20076;-80
2020/12/26 09:34:24;;;;;;;9.30;4.10;;;2.20;87.50;;;;;;4885112;29;20073;-79
2020/12/26 09:37:04;;;;;;;11.77;5.68;;;2.20;87.60;;;;;;4894293;29;20084;-80
2020/12/26 09:39:31;;;;;;;10.25;5.93;;;2.30;87.60;;;;;;4896926;29;20064;-80
2020/12/26 09:41:58;;;;;;;9.70;5.32;;;2.20;87.70;;;;;;4882682;29;20136;-80
2020/12/26 09:44:25;;;;;;;11.60;4.75;;;2.40;87.50;;;;;;4876551;29;20347;-80
2020/12/26 09:46:57;;;;;;;11.50;5.55;;;2.40;87.70;;;;;;4897305;29;20064;-81
2020/12/26 09:49:26;;;;;;;13.05;5.45;;;2.60;87.20;;;;;;4867154;29;20041;-79
2020/12/26 09:51:55;;;;;;;11.65;5.60;;;2.40;87.30;;;;;;4887449;29;20062;-80
2020/12/26 09:54:25;;;;;;;13.93;4.93;;;2.60;87.10;;;;;;4896108;29;20060;-82
2020/12/26 09:56:55;;;;;;;11.90;4.68;;;2.50;86.90;;;;;;4866683;29;20104;-82
2020/12/26 09:59:22;;;;;;;15.35;4.47;;;2.30;87.60;;;;;;4877256;29;20041;-79
2020/12/26 10:01:53;;;;;;;10.75;4.45;;;2.20;87.80;;;;;;4876971;29;20065;-80
2020/12/26 10:04:19;;;;;;;;;;;2.20;88.10;;;;;;4876917;29;20080;-79
2020/12/26 10:06:49;;;;;;;12.15;4.57;;;2.30;88.00;;;;;;4894790;29;19924;-82
2020/12/26 10:09:17;;;;;;;10.98;4.45;;;2.30;88.00;;;;;;4874530;29;20045;-79
2020/12/26 10:11:44;;;;;;;13.68;3.63;;;2.40;88.00;;;;;;4896170;29;20060;-80
2020/12/26 10:14:10;;;;;;;9.23;4.40;;;2.40;87.90;;;;;;4891779;29;20057;-80
2020/12/26 10:16:39;;;;;;;8.05;4.13;;;2.40;88.50;;;;;;4892709;29;20057;-80
2020/12/26 10:19:07;;;;;;;9.75;3.78;;;2.40;88.30;;;;;;4890779;29;20053;-80
2020/12/26 10:21:35;;;;;;;11.48;4.13;;;2.50;88.30;;;;;;4872800;29;20282;-79
2020/12/26 10:24:05;;;;;;;9.50;4.97;;;2.50;87.90;;;;;;4888919;29;20053;-80
2020/12/26 10:26:31;;;;;;;18.88;4.72;;;2.50;88.40;;;;;;4861324;29;20053;-82
2020/12/26 10:28:58;;;;;;;9.73;4.63;;;2.60;88.40;;;;;;4891236;29;20057;-79
2020/12/26 10:31:28;;;;;;;11.43;4.90;;;2.60;88.40;;;;;;4860790;29;20049;-81
2020/12/26 10:33:55;;;;;;;11.30;3.80;;;2.70;87.70;;;;;;4873561;29;20056;-80
2020/12/26 10:36:21;;;;;;;10.70;3.70;;;2.60;87.70;;;;;;4858990;29;20053;-80
2020/12/26 10:38:48;;;;;;;8.80;3.55;;;2.70;87.70;;;;;;4892760;29;20411;-82
2020/12/26 10:41:18;;;;;;;10.68;4.18;;;2.70;87.20;;;;;;4865459;29;20049;-80
2020/12/26 10:43:45;;;;;;;8.77;4.15;;;2.60;87.40;;;;;;4873938;29;20131;-83
2020/12/26 10:46:13;;;;;;;9.32;4.05;;;2.60;87.80;;;;;;4890478;29;20056;-80
2020/12/26 10:48:40;;;;;;;12.13;3.88;;;2.70;87.50;;;;;;4874663;29;20266;-84
2020/12/26 10:51:10;;;;;;;10.10;4.47;;;2.70;87.20;;;;;;4878150;29;20057;-80
2020/12/26 10:53:37;;;;;;;9.18;4.32;;;2.80;87.00;;;;;;4889764;29;20064;-79
2020/12/26 10:56:08;;;;;;;11.43;4.10;;;2.80;86.90;;;;;;4874201;29;20060;-79
2020/12/26 10:58:38;;;;;;;9.05;4.45;;;2.70;86.80;;;;;;4875910;29;20108;-80
2020/12/26 11:01:05;;;;;;;13.18;4.38;;;3.00;86.80;;;;;;4871333;29;20134;-80
2020/12/26 11:03:34;;;;;;;10.73;4.32;;;3.00;87.00;;;;;;4857515;29;20068;-79
2020/12/26 11:06:01;;;;;;;9.02;3.92;;;3.00;86.80;;;;;;4857202;29;20376;-80
2020/12/26 11:08:30;;;;;;;13.38;4.65;;;3.00;86.20;;;;;;4876174;29;20073;-82
2020/12/26 11:10:57;;;;;;;13.35;5.13;;;3.00;86.60;;;;;;4893501;29;20101;-81
2020/12/26 11:13:24;;;;;;;13.10;3.20;;;3.00;86.20;;;;;;4893728;29;20277;-81
2020/12/26 11:15:51;;;;;;;12.85;4.30;;;2.90;86.80;;;;;;4893563;29;20065;-82
2020/12/26 11:18:18;;;;;;;16.77;4.47;;;3.00;86.60;;;;;;4893634;29;20044;-82
2020/12/26 11:20:46;;;;;;;10.48;3.67;;;3.10;85.90;;;;;;4856144;29;20041;-81
2020/12/26 11:23:13;;;;;;;7.90;3.35;;;3.00;85.80;;;;;;4873861;29;20217;-82
2020/12/26 11:25:41;;;;;;;10.20;4.03;;;2.90;86.20;;;;;;4875938;29;20076;-79
2020/12/26 11:28:07;;;;;;;11.40;4.22;;;3.00;86.70;;;;;;4894390;29;20078;-79
2020/12/26 11:30:34;;;;;;;10.50;3.97;;;3.10;85.90;;;;;;4889623;29;20345;-78
2020/12/26 11:33:03;;;;;;;10.85;4.55;;;3.10;85.70;;;;;;4861666;29;20279;-79
2020/12/26 11:35:30;;;;;;;8.43;4.03;;;3.10;86.20;;;;;;4891932;29;20045;-81
2020/12/26 11:37:57;;;;;;;7.85;3.72;;;3.10;85.90;;;;;;4877591;29;20052;-79
2020/12/26 11:40:24;;;;;;;7.00;3.58;;;3.20;85.90;;;;;;4890228;29;20067;-82
2020/12/26 11:42:53;;;;;;;8.70;3.05;;;3.30;85.90;;;;;;4877306;29;20285;-80
2020/12/26 11:45:21;;;;;;;8.50;4.20;;;3.30;85.30;;;;;;4877630;29;20116;-80
2020/12/26 11:47:49;;;;;;;8.57;4.55;;;3.40;85.20;;;;;;4869814;29;20363;-80
2020/12/26 11:50:16;;;;;;;9.25;3.55;;;3.50;85.00;;;;;;4871950;29;20056;-81
2020/12/26 11:52:43;;;;;;;8.30;3.95;;;3.50;85.30;;;;;;4892022;29;20343;-83
2020/12/26 11:55:12;;;;;;;10.38;3.25;;;3.40;85.20;;;;;;4855180;29;20057;-79
2020/12/26 11:57:42;;;;;;;8.90;3.67;;;3.30;85.30;;;;;;4898206;29;20053;-79
2020/12/26 12:00:09;;;;;;;6.18;3.63;;;3.40;85.30;;;;;;4879979;29;20068;-80
2020/12/26 12:02:37;;;;;;;11.13;3.53;;;3.60;85.30;;;;;;4883083;29;20267;-79
2020/12/26 12:05:04;;;;;;;11.13;3.60;;;3.50;85.30;;;;;;4875609;29;20048;-82
2020/12/26 12:07:31;;;;;;;8.50;3.85;;;3.40;85.20;;;;;;4900976;29;20367;-79
2020/12/26 12:09:58;;;;;;;7.68;3.75;;;3.40;85.50;;;;;;4874647;29;20087;-80
2020/12/26 12:12:26;;;;;;;7.97;3.50;;;3.50;84.80;;;;;;4875241;29;20064;-79
2020/12/26 12:14:53;;;;;;;7.00;3.70;;;3.50;84.50;;;;;;4864484;29;20060;-80
2020/12/26 12:17:22;;;;;;;9.35;4.18;;;3.40;84.90;;;;;;4891649;29;20057;-81
2020/12/26 12:19:49;;;;;;;12.13;4.03;;;3.40;85.40;;;;;;4870781;29;20049;-80
2020/12/26 12:22:16;;;;;;;10.75;3.75;;;3.40;85.20;;;;;;4892074;29;20056;-80
2020/12/26 12:24:44;;;;;;;8.75;3.28;;;3.30;85.00;;;;;;4875337;29;20057;-80
2020/12/26 12:27:11;;;;;;;10.57;4.00;;;3.40;85.10;;;;;;4858699;29;20052;-83
2020/12/26 12:29:38;;;;;;;7.35;2.80;;;3.40;85.30;;;;;;4886314;29;20256;-80
2020/12/26 12:32:04;;;;;;;8.40;3.50;;;3.50;85.00;;;;;;4906916;29;20241;-80
2020/12/26 12:34:32;;;;;;;6.57;2.55;;;3.50;84.60;;;;;;4903402;29;20064;-81
2020/12/26 12:37:03;;;;;;;8.23;3.47;;;3.60;84.80;;;;;;4863933;29;20047;-80
2020/12/26 12:39:30;;;;;;;8.73;3.65;;;3.70;84.70;;;;;;4879924;29;20348;-81
2020/12/26 12:41:57;;;;;;;5.93;3.13;;;3.70;84.50;;;;;;4868342;29;20045;-79
2020/12/26 12:44:24;;;;;;;10.05;3.28;;;3.70;84.20;;;;;;4875946;29;20069;-80
2020/12/26 12:46:53;;;;;;;10.00;3.90;;;3.80;83.90;;;;;;4883052;29;20053;-80
2020/12/26 12:49:21;;;;;;;6.78;3.13;;;3.90;83.80;;;;;;4895673;29;20064;-81
2020/12/26 12:51:48;;;;;;;8.07;3.17;;;4.00;83.10;;;;;;4875978;29;20067;-80